sensor_id;sensor_type;location;lat;lon;timestamp;P1;durP1;ratioP1;P2;durP2;ratioP2
59193;SDS011;44967;48.598;15.650;2023-02-22T00:00:17;2.00;;;1.80;;
59193;SDS011;44967;48.598;15.650;2023-02-22T00:02:47;6.00;;;3.70;;
59193;SDS011;44967;48.598;15.650;2023-02-22T00:05:19;7.00;;;4.03;;
59193;SDS011;44967;48.598;15.650;2023-02-22T00:07:45;6.57;;;4.05;;
59193;SDS011;44967;48.598;15.650;2023-02-22T00:10:12;6.18;;;3.65;;
59193;SDS011;44967;48.598;15.650;2023-02-22T00:12:40;4.90;;;3.38;;
59193;SDS011;44967;48.598;15.650;2023-02-22T00:15:07;4.63;;;2.60;;
59193;SDS011;44967;48.598;15.650;2023-02-22T00:17:34;4.45;;;1.92;;
59193;SDS011;44967;48.598;15.650;2023-02-22T00:20:01;3.30;;;2.17;;
59193;SDS011;44967;48.598;15.650;2023-02-22T00:22:30;2.92;;;1.98;;
59193;SDS011;44967;48.598;15.650;2023-02-22T00:24:56;3.72;;;1.75;;
59193;SDS011;44967;48.598;15.650;2023-02-22T00:27:22;1.73;;;1.13;;
59193;SDS011;44967;48.598;15.650;2023-02-22T00:29:48;2.47;;;1.50;;
59193;SDS011;44967;48.598;15.650;2023-02-22T00:32:13;2.15;;;1.50;;
59193;SDS011;44967;48.598;15.650;2023-02-22T00:34:39;3.05;;;1.23;;
59193;SDS011;44967;48.598;15.650;2023-02-22T00:37:05;6.47;;;2.95;;
59193;SDS011;44967;48.598;15.650;2023-02-22T00:39:31;3.92;;;2.50;;
59193;SDS011;44967;48.598;15.650;2023-02-22T00:41:57;6.22;;;3.33;;
59193;SDS011;44967;48.598;15.650;2023-02-22T00:44:23;5.50;;;3.42;;
59193;SDS011;44967;48.598;15.650;2023-02-22T00:46:49;8.70;;;3.83;;
59193;SDS011;44967;48.598;15.650;2023-02-22T00:49:15;7.82;;;4.32;;
59193;SDS011;44967;48.598;15.650;2023-02-22T00:51:40;11.07;;;3.63;;
59193;SDS011;44967;48.598;15.650;2023-02-22T00:54:06;10.75;;;4.80;;
59193;SDS011;44967;48.598;15.650;2023-02-22T00:56:35;12.65;;;7.65;;
59193;SDS011;44967;48.598;15.650;2023-02-22T00:59:02;9.23;;;4.40;;
59193;SDS011;44967;48.598;15.650;2023-02-22T01:01:29;5.32;;;3.55;;
59193;SDS011;44967;48.598;15.650;2023-02-22T01:03:56;7.10;;;3.63;;
59193;SDS011;44967;48.598;15.650;2023-02-22T01:06:22;6.20;;;4.60;;
59193;SDS011;44967;48.598;15.650;2023-02-22T01:08:48;11.70;;;6.72;;
59193;SDS011;44967;48.598;15.650;2023-02-22T01:11:14;11.50;;;7.70;;
59193;SDS011;44967;48.598;15.650;2023-02-22T01:13:41;11.55;;;6.75;;
59193;SDS011;44967;48.598;15.650;2023-02-22T01:16:09;9.90;;;6.13;;
59193;SDS011;44967;48.598;15.650;2023-02-22T01:18:35;9.13;;;5.78;;
59193;SDS011;44967;48.598;15.650;2023-02-22T01:21:04;8.63;;;4.85;;
59193;SDS011;44967;48.598;15.650;2023-02-22T01:23:30;8.07;;;4.35;;
59193;SDS011;44967;48.598;15.650;2023-02-22T01:25:56;6.25;;;4.22;;
59193;SDS011;44967;48.598;15.650;2023-02-22T01:28:22;11.00;;;5.10;;
59193;SDS011;44967;48.598;15.650;2023-02-22T01:30:48;13.60;;;6.95;;
59193;SDS011;44967;48.598;15.650;2023-02-22T01:33:15;11.32;;;6.95;;
59193;SDS011;44967;48.598;15.650;2023-02-22T01:35:41;11.85;;;6.55;;
59193;SDS011;44967;48.598;15.650;2023-02-22T01:38:08;10.60;;;7.53;;
59193;SDS011;44967;48.598;15.650;2023-02-22T01:40:36;11.73;;;7.03;;
59193;SDS011;44967;48.598;15.650;2023-02-22T01:43:05;7.95;;;5.45;;
59193;SDS011;44967;48.598;15.650;2023-02-22T01:51:13;11.80;;;6.72;;
59193;SDS011;44967;48.598;15.650;2023-02-22T01:53:56;11.30;;;6.90;;
59193;SDS011;44967;48.598;15.650;2023-02-22T01:56:26;10.07;;;7.33;;
59193;SDS011;44967;48.598;15.650;2023-02-22T01:58:57;7.25;;;4.93;;
59193;SDS011;44967;48.598;15.650;2023-02-22T02:01:26;7.25;;;4.47;;
59193;SDS011;44967;48.598;15.650;2023-02-22T02:03:54;6.45;;;3.92;;
59193;SDS011;44967;48.598;15.650;2023-02-22T02:06:22;8.95;;;4.82;;
59193;SDS011;44967;48.598;15.650;2023-02-22T02:12:06;6.13;;;4.25;;
59193;SDS011;44967;48.598;15.650;2023-02-22T02:14:34;7.93;;;4.75;;
59193;SDS011;44967;48.598;15.650;2023-02-22T02:17:05;6.40;;;4.25;;
59193;SDS011;44967;48.598;15.650;2023-02-22T02:22:46;5.82;;;3.90;;
59193;SDS011;44967;48.598;15.650;2023-02-22T02:35:59;5.63;;;3.85;;
59193;SDS011;44967;48.598;15.650;2023-02-22T02:38:40;4.82;;;3.38;;
59193;SDS011;44967;48.598;15.650;2023-02-22T02:46:34;4.78;;;2.90;;
59193;SDS011;44967;48.598;15.650;2023-02-22T02:49:11;5.13;;;3.30;;
59193;SDS011;44967;48.598;15.650;2023-02-22T02:51:43;5.75;;;3.60;;
59193;SDS011;44967;48.598;15.650;2023-02-22T02:54:13;6.63;;;4.32;;
59193;SDS011;44967;48.598;15.650;2023-02-22T02:56:41;6.95;;;4.45;;
59193;SDS011;44967;48.598;15.650;2023-02-22T03:01:56;4.97;;;3.28;;
59193;SDS011;44967;48.598;15.650;2023-02-22T03:04:28;6.07;;;3.25;;
59193;SDS011;44967;48.598;15.650;2023-02-22T03:07:22;6.00;;;4.10;;
59193;SDS011;44967;48.598;15.650;2023-02-22T03:13:31;12.65;;;6.00;;
59193;SDS011;44967;48.598;15.650;2023-02-22T03:16:51;14.65;;;7.18;;
59193;SDS011;44967;48.598;15.650;2023-02-22T03:19:36;13.15;;;5.47;;
59193;SDS011;44967;48.598;15.650;2023-02-22T03:22:24;8.73;;;4.60;;
59193;SDS011;44967;48.598;15.650;2023-02-22T03:24:55;9.98;;;5.50;;
59193;SDS011;44967;48.598;15.650;2023-02-22T03:27:35;9.00;;;5.53;;
59193;SDS011;44967;48.598;15.650;2023-02-22T03:30:13;14.10;;;6.82;;
59193;SDS011;44967;48.598;15.650;2023-02-22T03:32:47;14.70;;;6.05;;
59193;SDS011;44967;48.598;15.650;2023-02-22T03:35:18;10.50;;;5.10;;
59193;SDS011;44967;48.598;15.650;2023-02-22T03:37:48;19.58;;;6.47;;
59193;SDS011;44967;48.598;15.650;2023-02-22T03:40:25;13.35;;;6.40;;
59193;SDS011;44967;48.598;15.650;2023-02-22T03:43:01;11.32;;;5.90;;
59193;SDS011;44967;48.598;15.650;2023-02-22T03:45:32;10.52;;;5.65;;
59193;SDS011;44967;48.598;15.650;2023-02-22T03:48:07;8.70;;;4.70;;
59193;SDS011;44967;48.598;15.650;2023-02-22T03:50:41;30.77;;;6.57;;
59193;SDS011;44967;48.598;15.650;2023-02-22T03:53:07;17.35;;;6.22;;
59193;SDS011;44967;48.598;15.650;2023-02-22T03:55:35;11.80;;;5.00;;
59193;SDS011;44967;48.598;15.650;2023-02-22T03:58:06;9.60;;;4.78;;
59193;SDS011;44967;48.598;15.650;2023-02-22T04:00:36;9.80;;;4.68;;
59193;SDS011;44967;48.598;15.650;2023-02-22T04:03:01;8.48;;;5.15;;
59193;SDS011;44967;48.598;15.650;2023-02-22T04:05:28;8.95;;;5.47;;
59193;SDS011;44967;48.598;15.650;2023-02-22T04:07:54;13.55;;;6.82;;
59193;SDS011;44967;48.598;15.650;2023-02-22T04:10:21;14.63;;;7.47;;
59193;SDS011;44967;48.598;15.650;2023-02-22T04:12:48;9.27;;;4.78;;
59193;SDS011;44967;48.598;15.650;2023-02-22T04:15:19;10.52;;;4.53;;
59193;SDS011;44967;48.598;15.650;2023-02-22T04:17:46;8.50;;;4.70;;
59193;SDS011;44967;48.598;15.650;2023-02-22T04:20:12;7.60;;;4.13;;
59193;SDS011;44967;48.598;15.650;2023-02-22T04:22:39;6.68;;;4.22;;
59193;SDS011;44967;48.598;15.650;2023-02-22T04:25:05;9.55;;;5.00;;
59193;SDS011;44967;48.598;15.650;2023-02-22T04:27:31;5.82;;;3.67;;
59193;SDS011;44967;48.598;15.650;2023-02-22T04:29:58;6.30;;;3.65;;
59193;SDS011;44967;48.598;15.650;2023-02-22T04:32:24;6.15;;;3.63;;
59193;SDS011;44967;48.598;15.650;2023-02-22T04:34:49;6.65;;;3.72;;
59193;SDS011;44967;48.598;15.650;2023-02-22T04:37:15;7.35;;;4.10;;
59193;SDS011;44967;48.598;15.650;2023-02-22T04:39:41;6.80;;;3.70;;
59193;SDS011;44967;48.598;15.650;2023-02-22T04:42:06;5.50;;;2.88;;
59193;SDS011;44967;48.598;15.650;2023-02-22T04:44:32;5.18;;;2.83;;
59193;SDS011;44967;48.598;15.650;2023-02-22T04:46:57;5.72;;;2.80;;
59193;SDS011;44967;48.598;15.650;2023-02-22T04:49:24;4.90;;;2.92;;
59193;SDS011;44967;48.598;15.650;2023-02-22T04:51:50;3.35;;;2.90;;
59193;SDS011;44967;48.598;15.650;2023-02-22T04:54:16;6.75;;;3.00;;
59193;SDS011;44967;48.598;15.650;2023-02-22T04:56:43;5.93;;;2.58;;
59193;SDS011;44967;48.598;15.650;2023-02-22T04:59:09;2.97;;;2.10;;
59193;SDS011;44967;48.598;15.650;2023-02-22T05:01:35;3.88;;;2.40;;
59193;SDS011;44967;48.598;15.650;2023-02-22T05:04:05;8.10;;;3.20;;
59193;SDS011;44967;48.598;15.650;2023-02-22T05:06:31;11.40;;;4.97;;
59193;SDS011;44967;48.598;15.650;2023-02-22T05:08:57;9.65;;;5.43;;
59193;SDS011;44967;48.598;15.650;2023-02-22T05:11:22;10.65;;;5.18;;
59193;SDS011;44967;48.598;15.650;2023-02-22T05:13:49;7.18;;;3.63;;
59193;SDS011;44967;48.598;15.650;2023-02-22T05:16:14;5.50;;;3.00;;
59193;SDS011;44967;48.598;15.650;2023-02-22T05:18:40;5.10;;;2.92;;
59193;SDS011;44967;48.598;15.650;2023-02-22T05:21:06;3.28;;;2.47;;
59193;SDS011;44967;48.598;15.650;2023-02-22T05:23:32;4.75;;;3.15;;
59193;SDS011;44967;48.598;15.650;2023-02-22T05:26:01;8.65;;;4.72;;
59193;SDS011;44967;48.598;15.650;2023-02-22T05:28:26;7.55;;;4.40;;
59193;SDS011;44967;48.598;15.650;2023-02-22T05:30:52;4.50;;;3.08;;
59193;SDS011;44967;48.598;15.650;2023-02-22T05:33:18;5.68;;;3.88;;
59193;SDS011;44967;48.598;15.650;2023-02-22T05:35:43;14.32;;;6.38;;
59193;SDS011;44967;48.598;15.650;2023-02-22T05:38:13;30.75;;;9.32;;
59193;SDS011;44967;48.598;15.650;2023-02-22T05:40:40;20.17;;;8.85;;
59193;SDS011;44967;48.598;15.650;2023-02-22T05:43:06;22.67;;;8.27;;
59193;SDS011;44967;48.598;15.650;2023-02-22T05:45:32;17.83;;;8.73;;
59193;SDS011;44967;48.598;15.650;2023-02-22T05:47:58;18.88;;;8.93;;
59193;SDS011;44967;48.598;15.650;2023-02-22T05:50:24;19.40;;;7.82;;
59193;SDS011;44967;48.598;15.650;2023-02-22T05:52:50;17.38;;;7.20;;
59193;SDS011;44967;48.598;15.650;2023-02-22T05:55:17;17.42;;;7.15;;
59193;SDS011;44967;48.598;15.650;2023-02-22T05:57:45;16.95;;;7.20;;
59193;SDS011;44967;48.598;15.650;2023-02-22T06:00:15;13.43;;;6.40;;
59193;SDS011;44967;48.598;15.650;2023-02-22T06:02:43;14.00;;;5.53;;
59193;SDS011;44967;48.598;15.650;2023-02-22T06:05:09;14.73;;;6.38;;
59193;SDS011;44967;48.598;15.650;2023-02-22T06:07:35;15.75;;;6.75;;
59193;SDS011;44967;48.598;15.650;2023-02-22T06:10:01;13.70;;;6.93;;
59193;SDS011;44967;48.598;15.650;2023-02-22T06:12:26;14.68;;;7.88;;
59193;SDS011;44967;48.598;15.650;2023-02-22T06:14:52;24.88;;;8.77;;
59193;SDS011;44967;48.598;15.650;2023-02-22T06:17:18;17.38;;;8.30;;
59193;SDS011;44967;48.598;15.650;2023-02-22T06:19:43;15.23;;;6.78;;
59193;SDS011;44967;48.598;15.650;2023-02-22T06:22:16;15.90;;;6.28;;
59193;SDS011;44967;48.598;15.650;2023-02-22T06:24:43;13.55;;;7.15;;
59193;SDS011;44967;48.598;15.650;2023-02-22T06:27:09;13.43;;;7.65;;
59193;SDS011;44967;48.598;15.650;2023-02-22T06:29:34;11.77;;;6.18;;
59193;SDS011;44967;48.598;15.650;2023-02-22T06:32:00;12.70;;;6.50;;
59193;SDS011;44967;48.598;15.650;2023-02-22T06:34:26;11.73;;;6.75;;
59193;SDS011;44967;48.598;15.650;2023-02-22T06:36:52;16.70;;;8.25;;
59193;SDS011;44967;48.598;15.650;2023-02-22T06:39:17;12.55;;;6.88;;
59193;SDS011;44967;48.598;15.650;2023-02-22T06:41:43;10.73;;;6.50;;
59193;SDS011;44967;48.598;15.650;2023-02-22T06:44:11;16.63;;;7.22;;
59193;SDS011;44967;48.598;15.650;2023-02-22T06:46:38;16.27;;;6.88;;
59193;SDS011;44967;48.598;15.650;2023-02-22T06:49:04;11.88;;;7.22;;
59193;SDS011;44967;48.598;15.650;2023-02-22T06:51:34;12.93;;;7.13;;
59193;SDS011;44967;48.598;15.650;2023-02-22T06:54:01;9.60;;;5.93;;
59193;SDS011;44967;48.598;15.650;2023-02-22T06:56:27;13.45;;;6.78;;
59193;SDS011;44967;48.598;15.650;2023-02-22T06:58:52;16.10;;;7.22;;
59193;SDS011;44967;48.598;15.650;2023-02-22T07:01:18;9.10;;;5.78;;
59193;SDS011;44967;48.598;15.650;2023-02-22T07:03:44;11.57;;;7.20;;
59193;SDS011;44967;48.598;15.650;2023-02-22T07:06:09;12.00;;;5.95;;
59193;SDS011;44967;48.598;15.650;2023-02-22T07:08:35;16.38;;;7.00;;
59193;SDS011;44967;48.598;15.650;2023-02-22T07:11:01;36.08;;;8.75;;
59193;SDS011;44967;48.598;15.650;2023-02-22T07:13:27;12.63;;;6.15;;
59193;SDS011;44967;48.598;15.650;2023-02-22T07:15:53;13.18;;;6.00;;
59193;SDS011;44967;48.598;15.650;2023-02-22T07:18:19;11.52;;;5.57;;
59193;SDS011;44967;48.598;15.650;2023-02-22T07:20:45;11.85;;;6.72;;
59193;SDS011;44967;48.598;15.650;2023-02-22T07:23:13;15.80;;;6.72;;
59193;SDS011;44967;48.598;15.650;2023-02-22T07:25:39;16.00;;;6.03;;
59193;SDS011;44967;48.598;15.650;2023-02-22T07:28:05;11.52;;;5.60;;
59193;SDS011;44967;48.598;15.650;2023-02-22T07:30:31;8.10;;;4.80;;
59193;SDS011;44967;48.598;15.650;2023-02-22T07:32:59;9.43;;;5.43;;
59193;SDS011;44967;48.598;15.650;2023-02-22T07:35:29;8.15;;;5.35;;
59193;SDS011;44967;48.598;15.650;2023-02-22T07:37:57;9.45;;;5.72;;
59193;SDS011;44967;48.598;15.650;2023-02-22T07:40:24;14.23;;;5.95;;
59193;SDS011;44967;48.598;15.650;2023-02-22T07:42:58;9.02;;;5.78;;
59193;SDS011;44967;48.598;15.650;2023-02-22T07:45:31;12.23;;;4.88;;
59193;SDS011;44967;48.598;15.650;2023-02-22T07:47:59;12.30;;;5.30;;
59193;SDS011;44967;48.598;15.650;2023-02-22T07:50:27;8.43;;;5.30;;
59193;SDS011;44967;48.598;15.650;2023-02-22T07:52:56;10.98;;;5.35;;
59193;SDS011;44967;48.598;15.650;2023-02-22T07:55:24;8.85;;;5.45;;
59193;SDS011;44967;48.598;15.650;2023-02-22T07:57:52;12.15;;;4.63;;
59193;SDS011;44967;48.598;15.650;2023-02-22T08:00:22;7.78;;;4.22;;
59193;SDS011;44967;48.598;15.650;2023-02-22T08:02:49;6.30;;;4.28;;
59193;SDS011;44967;48.598;15.650;2023-02-22T08:05:15;7.05;;;4.00;;
59193;SDS011;44967;48.598;15.650;2023-02-22T08:07:41;9.23;;;4.80;;
59193;SDS011;44967;48.598;15.650;2023-02-22T08:10:08;9.73;;;4.25;;
59193;SDS011;44967;48.598;15.650;2023-02-22T08:12:35;8.82;;;4.20;;
59193;SDS011;44967;48.598;15.650;2023-02-22T08:15:03;10.73;;;4.68;;
59193;SDS011;44967;48.598;15.650;2023-02-22T08:17:30;11.77;;;5.95;;
59193;SDS011;44967;48.598;15.650;2023-02-22T08:19:56;8.95;;;5.68;;
59193;SDS011;44967;48.598;15.650;2023-02-22T08:22:21;11.07;;;6.53;;
59193;SDS011;44967;48.598;15.650;2023-02-22T08:24:48;9.82;;;6.10;;
59193;SDS011;44967;48.598;15.650;2023-02-22T08:27:25;13.20;;;6.65;;
59193;SDS011;44967;48.598;15.650;2023-02-22T08:29:52;13.05;;;6.97;;
59193;SDS011;44967;48.598;15.650;2023-02-22T08:32:19;18.38;;;7.63;;
59193;SDS011;44967;48.598;15.650;2023-02-22T08:34:45;12.65;;;6.07;;
59193;SDS011;44967;48.598;15.650;2023-02-22T08:37:11;21.52;;;6.60;;
59193;SDS011;44967;48.598;15.650;2023-02-22T08:39:37;9.45;;;4.55;;
59193;SDS011;44967;48.598;15.650;2023-02-22T08:42:03;8.48;;;4.85;;
59193;SDS011;44967;48.598;15.650;2023-02-22T08:44:28;6.15;;;3.58;;
59193;SDS011;44967;48.598;15.650;2023-02-22T08:46:54;9.77;;;3.50;;
59193;SDS011;44967;48.598;15.650;2023-02-22T08:49:20;12.60;;;4.35;;
59193;SDS011;44967;48.598;15.650;2023-02-22T08:51:46;5.63;;;4.00;;
59193;SDS011;44967;48.598;15.650;2023-02-22T08:54:12;5.18;;;3.83;;
59193;SDS011;44967;48.598;15.650;2023-02-22T08:56:38;5.90;;;3.78;;
59193;SDS011;44967;48.598;15.650;2023-02-22T08:59:04;7.07;;;3.70;;
59193;SDS011;44967;48.598;15.650;2023-02-22T09:01:29;8.85;;;4.88;;
59193;SDS011;44967;48.598;15.650;2023-02-22T09:03:57;5.75;;;3.65;;
59193;SDS011;44967;48.598;15.650;2023-02-22T09:06:23;7.03;;;4.20;;
59193;SDS011;44967;48.598;15.650;2023-02-22T09:08:49;8.30;;;3.60;;
59193;SDS011;44967;48.598;15.650;2023-02-22T09:11:14;8.95;;;4.57;;
59193;SDS011;44967;48.598;15.650;2023-02-22T09:13:41;6.82;;;4.10;;
59193;SDS011;44967;48.598;15.650;2023-02-22T09:16:06;7.35;;;4.15;;
59193;SDS011;44967;48.598;15.650;2023-02-22T09:18:32;5.75;;;4.20;;
59193;SDS011;44967;48.598;15.650;2023-02-22T09:20:57;12.68;;;4.07;;
59193;SDS011;44967;48.598;15.650;2023-02-22T09:23:23;8.02;;;4.53;;
59193;SDS011;44967;48.598;15.650;2023-02-22T09:25:50;6.10;;;4.25;;
59193;SDS011;44967;48.598;15.650;2023-02-22T09:28:18;8.68;;;4.00;;
59193;SDS011;44967;48.598;15.650;2023-02-22T09:30:44;8.30;;;5.10;;
59193;SDS011;44967;48.598;15.650;2023-02-22T09:33:14;9.43;;;5.40;;
59193;SDS011;44967;48.598;15.650;2023-02-22T09:35:41;12.80;;;5.53;;
59193;SDS011;44967;48.598;15.650;2023-02-22T09:38:13;7.90;;;3.63;;
59193;SDS011;44967;48.598;15.650;2023-02-22T09:40:45;6.78;;;3.50;;
59193;SDS011;44967;48.598;15.650;2023-02-22T09:43:29;7.30;;;3.08;;
59193;SDS011;44967;48.598;15.650;2023-02-22T09:49:28;7.20;;;2.95;;
59193;SDS011;44967;48.598;15.650;2023-02-22T09:51:41;7.70;;;3.10;;
59193;SDS011;44967;48.598;15.650;2023-02-22T09:57:32;5.57;;;2.83;;
59193;SDS011;44967;48.598;15.650;2023-02-22T10:00:05;6.03;;;2.70;;
59193;SDS011;44967;48.598;15.650;2023-02-22T10:02:42;14.02;;;3.60;;
59193;SDS011;44967;48.598;15.650;2023-02-22T10:05:18;4.80;;;2.70;;
59193;SDS011;44967;48.598;15.650;2023-02-22T10:07:58;5.32;;;2.92;;
59193;SDS011;44967;48.598;15.650;2023-02-22T10:10:36;3.75;;;2.25;;
59193;SDS011;44967;48.598;15.650;2023-02-22T10:23:52;2.97;;;2.40;;
59193;SDS011;44967;48.598;15.650;2023-02-22T10:26:22;7.68;;;3.10;;
59193;SDS011;44967;48.598;15.650;2023-02-22T10:31:46;4.22;;;2.65;;
59193;SDS011;44967;48.598;15.650;2023-02-22T10:34:18;3.42;;;2.25;;
59193;SDS011;44967;48.598;15.650;2023-02-22T10:36:49;3.72;;;2.58;;
59193;SDS011;44967;48.598;15.650;2023-02-22T10:39:31;14.65;;;4.00;;
59193;SDS011;44967;48.598;15.650;2023-02-22T10:42:00;3.75;;;2.70;;
59193;SDS011;44967;48.598;15.650;2023-02-22T10:44:33;3.47;;;2.47;;
59193;SDS011;44967;48.598;15.650;2023-02-22T10:47:01;4.70;;;2.50;;
59193;SDS011;44967;48.598;15.650;2023-02-22T10:49:38;4.20;;;2.58;;
59193;SDS011;44967;48.598;15.650;2023-02-22T10:52:27;4.28;;;2.25;;
59193;SDS011;44967;48.598;15.650;2023-02-22T10:54:56;5.05;;;2.63;;
59193;SDS011;44967;48.598;15.650;2023-02-22T10:57:25;6.32;;;2.80;;
59193;SDS011;44967;48.598;15.650;2023-02-22T11:00:13;3.72;;;2.50;;
59193;SDS011;44967;48.598;15.650;2023-02-22T11:02:53;6.00;;;2.53;;
59193;SDS011;44967;48.598;15.650;2023-02-22T11:05:32;10.18;;;3.05;;
59193;SDS011;44967;48.598;15.650;2023-02-22T11:10:45;4.32;;;2.40;;
59193;SDS011;44967;48.598;15.650;2023-02-22T11:13:16;2.65;;;2.15;;
59193;SDS011;44967;48.598;15.650;2023-02-22T11:15:54;4.85;;;2.60;;
59193;SDS011;44967;48.598;15.650;2023-02-22T11:18:31;2.45;;;2.10;;
59193;SDS011;44967;48.598;15.650;2023-02-22T11:21:01;3.65;;;2.75;;
59193;SDS011;44967;48.598;15.650;2023-02-22T11:23:36;3.50;;;2.00;;
59193;SDS011;44967;48.598;15.650;2023-02-22T11:26:06;3.55;;;2.22;;
59193;SDS011;44967;48.598;15.650;2023-02-22T11:28:35;4.72;;;2.20;;
59193;SDS011;44967;48.598;15.650;2023-02-22T11:31:23;2.63;;;2.22;;
59193;SDS011;44967;48.598;15.650;2023-02-22T11:33:55;6.13;;;2.92;;
59193;SDS011;44967;48.598;15.650;2023-02-22T11:36:38;8.43;;;2.95;;
59193;SDS011;44967;48.598;15.650;2023-02-22T11:41:56;4.03;;;2.92;;
59193;SDS011;44967;48.598;15.650;2023-02-22T11:46:53;4.40;;;2.60;;
59193;SDS011;44967;48.598;15.650;2023-02-22T11:49:23;9.80;;;2.85;;
59193;SDS011;44967;48.598;15.650;2023-02-22T12:02:50;3.47;;;2.50;;
59193;SDS011;44967;48.598;15.650;2023-02-22T12:16:39;4.55;;;2.63;;
59193;SDS011;44967;48.598;15.650;2023-02-22T12:19:14;9.07;;;3.60;;
59193;SDS011;44967;48.598;15.650;2023-02-22T12:21:54;10.75;;;2.92;;
59193;SDS011;44967;48.598;15.650;2023-02-22T12:24:33;5.80;;;2.10;;
59193;SDS011;44967;48.598;15.650;2023-02-22T12:27:23;4.57;;;2.00;;
59193;SDS011;44967;48.598;15.650;2023-02-22T12:30:25;5.70;;;3.47;;
59193;SDS011;44967;48.598;15.650;2023-02-22T12:35:40;2.30;;;1.50;;
59193;SDS011;44967;48.598;15.650;2023-02-22T12:38:34;5.10;;;2.03;;
59193;SDS011;44967;48.598;15.650;2023-02-22T12:41:06;25.83;;;5.88;;
59193;SDS011;44967;48.598;15.650;2023-02-22T12:43:35;4.72;;;2.90;;
59193;SDS011;44967;48.598;15.650;2023-02-22T12:46:16;22.10;;;5.13;;
59193;SDS011;44967;48.598;15.650;2023-02-22T12:54:27;10.65;;;3.33;;
59193;SDS011;44967;48.598;15.650;2023-02-22T12:57:19;2.85;;;2.28;;
59193;SDS011;44967;48.598;15.650;2023-02-22T13:00:04;3.10;;;2.55;;
59193;SDS011;44967;48.598;15.650;2023-02-22T13:02:44;2.80;;;2.42;;
59193;SDS011;44967;48.598;15.650;2023-02-22T13:05:20;3.50;;;2.58;;
59193;SDS011;44967;48.598;15.650;2023-02-22T13:13:20;2.83;;;2.53;;
59193;SDS011;44967;48.598;15.650;2023-02-22T13:15:51;3.08;;;2.10;;
59193;SDS011;44967;48.598;15.650;2023-02-22T13:18:36;4.35;;;2.53;;
59193;SDS011;44967;48.598;15.650;2023-02-22T13:21:19;3.33;;;2.40;;
59193;SDS011;44967;48.598;15.650;2023-02-22T13:26:55;3.28;;;2.47;;
59193;SDS011;44967;48.598;15.650;2023-02-22T13:46:15;8.00;;;2.38;;
59193;SDS011;44967;48.598;15.650;2023-02-22T13:49:14;37.88;;;5.82;;
59193;SDS011;44967;48.598;15.650;2023-02-22T13:51:49;22.88;;;4.45;;
59193;SDS011;44967;48.598;15.650;2023-02-22T13:54:19;3.45;;;2.80;;
59193;SDS011;44967;48.598;15.650;2023-02-22T14:08:36;7.35;;;3.10;;
59193;SDS011;44967;48.598;15.650;2023-02-22T14:10:56;4.80;;;3.40;;
59193;SDS011;44967;48.598;15.650;2023-02-22T14:13:24;3.80;;;2.60;;
59193;SDS011;44967;48.598;15.650;2023-02-22T14:26:10;7.25;;;2.75;;
59193;SDS011;44967;48.598;15.650;2023-02-22T14:31:13;4.80;;;2.88;;
59193;SDS011;44967;48.598;15.650;2023-02-22T14:33:54;3.97;;;2.90;;
59193;SDS011;44967;48.598;15.650;2023-02-22T14:39:22;3.97;;;3.13;;
59193;SDS011;44967;48.598;15.650;2023-02-22T14:41:57;6.05;;;3.35;;
59193;SDS011;44967;48.598;15.650;2023-02-22T14:44:37;8.15;;;3.80;;
59193;SDS011;44967;48.598;15.650;2023-02-22T14:47:08;3.60;;;2.90;;
59193;SDS011;44967;48.598;15.650;2023-02-22T14:49:44;5.55;;;3.00;;
59193;SDS011;44967;48.598;15.650;2023-02-22T14:52:26;18.83;;;4.32;;
59193;SDS011;44967;48.598;15.650;2023-02-22T15:00:41;5.50;;;3.03;;
59193;SDS011;44967;48.598;15.650;2023-02-22T15:06:13;6.68;;;3.28;;
59193;SDS011;44967;48.598;15.650;2023-02-22T15:08:43;11.07;;;3.67;;
59193;SDS011;44967;48.598;15.650;2023-02-22T15:11:26;32.83;;;6.68;;
59193;SDS011;44967;48.598;15.650;2023-02-22T15:13:57;7.18;;;3.17;;
59193;SDS011;44967;48.598;15.650;2023-02-22T15:16:31;4.93;;;2.90;;
59193;SDS011;44967;48.598;15.650;2023-02-22T15:18:59;16.92;;;4.45;;
59193;SDS011;44967;48.598;15.650;2023-02-22T15:21:31;14.70;;;3.38;;
59193;SDS011;44967;48.598;15.650;2023-02-22T15:24:00;9.20;;;3.60;;
59193;SDS011;44967;48.598;15.650;2023-02-22T15:26:37;6.10;;;3.40;;
59193;SDS011;44967;48.598;15.650;2023-02-22T15:29:15;4.00;;;3.08;;
59193;SDS011;44967;48.598;15.650;2023-02-22T15:31:44;6.38;;;3.85;;
59193;SDS011;44967;48.598;15.650;2023-02-22T15:36:43;25.45;;;5.35;;
59193;SDS011;44967;48.598;15.650;2023-02-22T15:39:43;6.85;;;3.17;;
59193;SDS011;44967;48.598;15.650;2023-02-22T15:42:09;5.82;;;3.53;;
59193;SDS011;44967;48.598;15.650;2023-02-22T15:47:16;8.80;;;4.07;;
59193;SDS011;44967;48.598;15.650;2023-02-22T15:49:45;6.22;;;4.43;;
59193;SDS011;44967;48.598;15.650;2023-02-22T15:52:32;5.13;;;4.47;;
59193;SDS011;44967;48.598;15.650;2023-02-22T15:54:58;5.22;;;4.10;;
59193;SDS011;44967;48.598;15.650;2023-02-22T15:57:24;6.63;;;4.32;;
59193;SDS011;44967;48.598;15.650;2023-02-22T15:59:52;6.05;;;4.30;;
59193;SDS011;44967;48.598;15.650;2023-02-22T16:05:02;5.47;;;4.00;;
59193;SDS011;44967;48.598;15.650;2023-02-22T16:07:46;5.25;;;3.90;;
59193;SDS011;44967;48.598;15.650;2023-02-22T16:10:22;5.28;;;3.33;;
59193;SDS011;44967;48.598;15.650;2023-02-22T16:13:36;8.82;;;5.00;;
59193;SDS011;44967;48.598;15.650;2023-02-22T16:15:55;8.43;;;4.22;;
59193;SDS011;44967;48.598;15.650;2023-02-22T16:18:24;8.90;;;5.82;;
59193;SDS011;44967;48.598;15.650;2023-02-22T16:20:57;6.63;;;4.05;;
59193;SDS011;44967;48.598;15.650;2023-02-22T16:23:29;15.13;;;5.57;;
59193;SDS011;44967;48.598;15.650;2023-02-22T16:26:03;5.93;;;3.70;;
59193;SDS011;44967;48.598;15.650;2023-02-22T16:28:46;8.07;;;3.03;;
59193;SDS011;44967;48.598;15.650;2023-02-22T16:31:22;3.95;;;3.10;;
59193;SDS011;44967;48.598;15.650;2023-02-22T16:33:52;9.32;;;4.63;;
59193;SDS011;44967;48.598;15.650;2023-02-22T16:36:19;7.15;;;4.28;;
59193;SDS011;44967;48.598;15.650;2023-02-22T16:38:47;5.50;;;3.17;;
59193;SDS011;44967;48.598;15.650;2023-02-22T16:41:15;4.00;;;3.38;;
59193;SDS011;44967;48.598;15.650;2023-02-22T16:43:47;8.35;;;4.10;;
59193;SDS011;44967;48.598;15.650;2023-02-22T16:46:16;5.28;;;3.25;;
59193;SDS011;44967;48.598;15.650;2023-02-22T16:48:43;6.28;;;3.28;;
59193;SDS011;44967;48.598;15.650;2023-02-22T16:53:49;6.63;;;3.72;;
59193;SDS011;44967;48.598;15.650;2023-02-22T16:56:18;4.85;;;3.05;;
59193;SDS011;44967;48.598;15.650;2023-02-22T16:58:45;10.00;;;4.57;;
59193;SDS011;44967;48.598;15.650;2023-02-22T17:01:14;7.25;;;4.45;;
59193;SDS011;44967;48.598;15.650;2023-02-22T17:03:42;6.47;;;4.18;;
59193;SDS011;44967;48.598;15.650;2023-02-22T17:06:09;8.95;;;4.35;;
59193;SDS011;44967;48.598;15.650;2023-02-22T17:08:36;5.78;;;3.30;;
59193;SDS011;44967;48.598;15.650;2023-02-22T17:11:02;7.57;;;3.70;;
59193;SDS011;44967;48.598;15.650;2023-02-22T17:13:29;6.20;;;3.05;;
59193;SDS011;44967;48.598;15.650;2023-02-22T17:15:55;11.38;;;6.13;;
59193;SDS011;44967;48.598;15.650;2023-02-22T17:18:22;7.15;;;3.88;;
59193;SDS011;44967;48.598;15.650;2023-02-22T17:20:50;6.90;;;3.55;;
59193;SDS011;44967;48.598;15.650;2023-02-22T17:23:17;5.88;;;3.35;;
59193;SDS011;44967;48.598;15.650;2023-02-22T17:25:50;7.95;;;3.13;;
59193;SDS011;44967;48.598;15.650;2023-02-22T17:28:18;7.55;;;3.63;;
59193;SDS011;44967;48.598;15.650;2023-02-22T17:30:44;8.75;;;4.25;;
59193;SDS011;44967;48.598;15.650;2023-02-22T17:33:17;6.15;;;3.95;;